Time;durP1;ratioP1;P1;durP2;ratioP2;P2;SDS_P1;SDS_P2;PMS_P1;PMS_P2;Temp;Humidity;BMP_temperature;BMP_pressure;BME280_temperature;BME280_humidity;BME280_pressure;Samples;Min_cycle;Max_cycle;Signal;HPM_P1;HPM_P2
2024/01/04 00:02:25;;;;;;;5.45;2.90;;;;;;;2.84;100.00;96230.63;1222477;75;2917200;-67
2024/01/04 00:05:02;;;;;;;5.10;2.80;;;;;;;3.13;100.00;96229.25;1224663;75;2917087;-69
2024/01/04 00:07:35;;;;;;;4.75;3.05;;;;;;;3.15;100.00;96230.28;1224103;75;2930427;-66
2024/01/04 00:10:10;;;;;;;4.15;3.10;;;;;;;3.31;100.00;96222.97;1225036;75;2931351;-67
2024/01/04 00:12:44;;;;;;;4.65;3.10;;;;;;;3.28;100.00;96205.69;1223440;75;2922108;-68
2024/01/04 00:15:17;;;;;;;4.45;3.30;;;;;;;3.34;100.00;96205.81;1224684;75;2924804;-68
2024/01/04 00:17:50;;;;;;;4.20;3.10;;;;;;;3.37;100.00;96208.34;1224430;75;2927766;-67
2024/01/04 00:20:26;;;;;;;5.05;3.30;;;;;;;3.41;100.00;96218.97;1223717;75;2920357;-67
2024/01/04 00:22:58;;;;;;;4.30;3.20;;;;;;;3.38;100.00;96223.34;1223857;75;2920974;-66
2024/01/04 00:25:31;;;;;;;4.85;3.10;;;;;;;3.53;100.00;96236.16;1223903;75;2922411;-64
2024/01/04 00:28:04;;;;;;;4.25;2.90;;;;;;;3.54;100.00;96226.84;1223023;75;2929731;-65
2024/01/04 00:30:37;;;;;;;5.40;3.60;;;;;;;3.59;100.00;96237.03;1223813;75;2928139;-68
2024/01/04 00:33:10;;;;;;;5.45;3.35;;;;;;;3.62;100.00;96231.44;1223556;75;2940801;-64
2024/01/04 00:35:46;;;;;;;3.70;2.65;;;;;;;3.70;100.00;96234.50;1223672;75;2936683;-67
2024/01/04 00:38:19;;;;;;;4.90;2.95;;;;;;;3.66;100.00;96247.50;1223409;75;2922415;-67
2024/01/04 00:40:52;;;;;;;4.85;3.40;;;;;;;3.66;100.00;96252.16;1224007;75;2943875;-64
2024/01/04 00:43:24;;;;;;;4.65;3.45;;;;;;;3.66;100.00;96263.72;1223637;75;2925636;-67
2024/01/04 00:45:57;;;;;;;4.20;3.10;;;;;;;3.63;100.00;96265.41;1224412;75;2929040;-66
2024/01/04 00:48:30;;;;;;;3.85;3.00;;;;;;;3.65;100.00;96270.34;1224220;75;2920528;-68
2024/01/04 00:51:06;;;;;;;5.55;3.50;;;;;;;3.58;100.00;96276.09;1224669;75;2921482;-66
2024/01/04 00:53:39;;;;;;;4.05;3.00;;;;;;;3.61;100.00;96294.13;1223455;75;2909391;-67
2024/01/04 00:56:12;;;;;;;5.15;3.45;;;;;;;3.73;100.00;96276.91;1224736;75;2920147;-67
2024/01/04 00:58:45;;;;;;;4.20;2.90;;;;;;;3.79;100.00;96291.28;1223737;75;2924471;-67
2024/01/04 01:01:18;;;;;;;3.90;2.80;;;;;;;3.63;100.00;96289.75;1225467;75;2925938;-66
2024/01/04 01:03:51;;;;;;;4.20;2.70;;;;;;;3.53;100.00;96284.88;1224859;75;2918268;-67
2024/01/04 01:06:26;;;;;;;3.35;2.50;;;;;;;3.55;100.00;96280.47;1224932;75;2919215;-66
2024/01/04 01:08:59;;;;;;;3.40;2.15;;;;;;;3.73;100.00;96270.72;1224149;75;2915723;-65
2024/01/04 01:11:32;;;;;;;2.05;1.70;;;;;;;3.69;100.00;96273.63;1225622;75;2917045;-67
2024/01/04 01:14:04;;;;;;;3.50;2.40;;;;;;;3.60;100.00;96277.13;1224643;75;2923202;-66
2024/01/04 01:16:37;;;;;;;3.25;2.75;;;;;;;3.69;100.00;96265.50;1224636;75;2916280;-65
2024/01/04 01:19:10;;;;;;;4.00;2.80;;;;;;;3.58;100.00;96262.56;1223968;75;2919365;-67
2024/01/04 01:21:46;;;;;;;5.35;3.35;;;;;;;3.70;100.00;96253.47;1223894;75;2919279;-67
2024/01/04 01:24:19;;;;;;;4.85;3.20;;;;;;;3.86;100.00;96233.34;1223937;75;2914759;-67
2024/01/04 01:26:51;;;;;;;3.45;2.40;;;;;;;3.74;100.00;96223.53;1225817;75;2915550;-66
2024/01/04 01:29:24;;;;;;;3.40;2.20;;;;;;;3.81;100.00;96223.91;1224540;75;2916834;-65
2024/01/04 01:31:57;;;;;;;3.00;2.30;;;;;;;3.62;100.00;96226.00;1225244;75;2920684;-66
2024/01/04 01:34:30;;;;;;;3.10;2.30;;;;;;;3.61;100.00;96197.47;1224536;75;2916503;-64
2024/01/04 01:37:05;;;;;;;2.50;2.30;;;;;;;3.33;100.00;96196.94;1224320;75;2924642;-66
2024/01/04 01:39:38;;;;;;;2.70;2.00;;;;;;;3.22;100.00;96183.19;1224588;75;2934428;-66
2024/01/04 01:42:11;;;;;;;2.15;1.85;;;;;;;3.37;100.00;96167.78;1224216;75;2920800;-68
2024/01/04 01:44:44;;;;;;;1.80;1.50;;;;;;;3.36;100.00;96162.81;1223653;75;2944984;-66
2024/01/04 01:47:17;;;;;;;1.85;1.60;;;;;;;3.31;100.00;96169.59;1224348;75;2923229;-66
2024/01/04 01:49:50;;;;;;;1.90;1.40;;;;;;;3.24;100.00;96183.50;1224927;75;2918142;-67
2024/01/04 01:52:27;;;;;;;3.30;2.20;;;;;;;2.84;100.00;96200.13;1224389;75;2922254;-64
2024/01/04 01:55:00;;;;;;;3.05;2.55;;;;;;;2.89;100.00;96199.50;1224892;75;2921526;-66
2024/01/04 01:57:33;;;;;;;2.80;2.30;;;;;;;2.93;100.00;96200.81;1224713;75;2921291;-69
2024/01/04 02:00:09;;;;;;;3.10;2.10;;;;;;;2.90;100.00;96207.16;1224758;75;2921413;-65
2024/01/04 02:02:42;;;;;;;3.20;2.50;;;;;;;2.72;100.00;96215.38;1224663;75;2915727;-66
2024/01/04 02:05:15;;;;;;;2.50;2.05;;;;;;;2.79;100.00;96201.53;1224814;75;2920087;-69
2024/01/04 02:07:50;;;;;;;3.30;2.15;;;;;;;2.11;100.00;96197.28;1225046;75;2917181;-66
2024/01/04 02:10:23;;;;;;;3.05;2.05;;;;;;;2.33;100.00;96199.00;1224126;75;2915937;-65
2024/01/04 02:12:56;;;;;;;2.50;1.90;;;;;;;2.38;100.00;96208.44;1224422;75;2930459;-66
2024/01/04 02:15:29;;;;;;;2.00;1.65;;;;;;;2.24;100.00;96212.56;1224003;75;2923051;-66
2024/01/04 02:18:02;;;;;;;2.60;2.20;;;;;;;1.92;100.00;96225.53;1225465;75;2921742;-67
2024/01/04 02:20:35;;;;;;;5.80;2.75;;;;;;;1.72;100.00;96207.13;1223587;75;2921816;-66
2024/01/04 02:23:10;;;;;;;4.95;3.35;;;;;;;1.53;100.00;96211.78;1222938;67;2922540;-65
2024/01/04 02:25:43;;;;;;;6.20;4.55;;;;;;;1.68;100.00;96206.53;1224301;75;2927162;-65
2024/01/04 02:28:16;;;;;;;5.55;4.10;;;;;;;1.75;100.00;96203.53;1224640;75;2917235;-65
2024/01/04 02:30:49;;;;;;;7.15;5.25;;;;;;;1.73;100.00;96197.81;1225053;75;2916559;-65
2024/01/04 02:33:21;;;;;;;4.05;3.65;;;;;;;1.98;100.00;96212.19;1224862;75;2920949;-65
2024/01/04 02:35:54;;;;;;;5.55;3.65;;;;;;;1.66;100.00;96217.78;1223852;83;2925417;-66
2024/01/04 02:38:29;;;;;;;6.70;5.35;;;;;;;1.28;100.00;96220.94;1225513;75;2919304;-67
2024/01/04 02:41:02;;;;;;;5.55;4.25;;;;;;;1.60;100.00;96224.22;1225080;75;2924724;-67
2024/01/04 02:43:35;;;;;;;4.60;3.85;;;;;;;1.66;100.00;96230.50;1223600;75;2926270;-65
2024/01/04 02:46:08;;;;;;;4.50;3.80;;;;;;;1.73;100.00;96238.28;1225212;75;2919538;-65
2024/01/04 02:48:41;;;;;;;3.90;2.75;;;;;;;1.74;100.00;96239.06;1225417;75;2914653;-65
2024/01/04 02:51:13;;;;;;;5.05;3.65;;;;;;;1.40;100.00;96248.97;1224593;75;2922526;-64
2024/01/04 02:53:49;;;;;;;4.15;3.20;;;;;;;1.24;100.00;96250.72;1224334;75;2931810;-66
2024/01/04 02:56:21;;;;;;;3.95;3.15;;;;;;;1.35;100.00;96244.91;1222319;75;2957702;-67
2024/01/04 02:58:54;;;;;;;3.55;2.95;;;;;;;1.24;100.00;96248.03;1224031;75;2921809;-65
2024/01/04 03:01:27;;;;;;;3.05;2.40;;;;;;;1.31;100.00;96244.28;1224462;75;2925216;-63
2024/01/04 03:04:00;;;;;;;4.60;3.45;;;;;;;1.17;100.00;96244.88;1224835;75;2922303;-67
2024/01/04 03:06:34;;;;;;;3.15;2.65;;;;;;;1.22;100.00;96246.97;1223664;75;2921403;-65
2024/01/04 03:09:09;;;;;;;3.35;2.80;;;;;;;1.28;100.00;96243.25;1224491;75;2927906;-67
2024/01/04 03:11:42;;;;;;;3.20;2.40;;;;;;;1.03;100.00;96240.81;1224625;75;2916142;-67
2024/01/04 03:14:15;;;;;;;3.20;2.10;;;;;;;1.01;100.00;96251.28;1223811;75;2924894;-64
2024/01/04 03:16:48;;;;;;;3.65;2.65;;;;;;;0.72;100.00;96257.81;1223841;75;2923793;-63
2024/01/04 03:19:21;;;;;;;3.65;2.50;;;;;;;0.62;100.00;96258.97;1223687;75;2926315;-67
2024/01/04 03:21:53;;;;;;;4.15;2.95;;;;;;;0.61;100.00;96260.16;1224219;75;2921436;-69
2024/01/04 03:24:29;;;;;;;4.30;2.85;;;;;;;0.51;100.00;96259.38;1223446;75;2930005;-67
2024/01/04 03:27:02;;;;;;;4.85;3.00;;;;;;;0.41;100.00;96250.50;1224685;75;2925365;-65
2024/01/04 03:29:34;;;;;;;3.65;2.80;;;;;;;0.65;100.00;96252.69;1223958;75;2919585;-69
2024/01/04 03:32:08;;;;;;;4.00;2.90;;;;;;;0.26;100.00;96246.09;1224432;75;2915859;-66
2024/01/04 03:34:41;;;;;;;3.00;2.30;;;;;;;0.39;100.00;96257.53;1223992;75;2926041;-67
2024/01/04 03:37:13;;;;;;;2.80;2.30;;;;;;;0.48;100.00;96262.19;1224172;75;2926602;-67
2024/01/04 03:39:49;;;;;;;3.00;2.35;;;;;;;0.41;100.00;96268.63;1223854;75;2922538;-67
2024/01/04 03:42:22;;;;;;;3.45;2.35;;;;;;;0.10;100.00;96266.66;1224737;75;2924581;-67
2024/01/04 03:44:55;;;;;;;2.85;2.25;;;;;;;0.26;100.00;96267.63;1223952;75;2919343;-65
2024/01/04 03:47:28;;;;;;;3.75;2.40;;;;;;;0.10;100.00;96263.22;1224463;75;2927378;-67
2024/01/04 03:50:02;;;;;;;3.65;2.55;;;;;;;0.08;100.00;96266.34;1223263;75;2925165;-67
2024/01/04 03:52:35;;;;;;;3.05;2.45;;;;;;;0.14;100.00;96271.88;1224273;75;2930448;-66
2024/01/04 03:55:11;;;;;;;2.75;2.25;;;;;;;0.07;100.00;96274.84;1224202;75;2921366;-66
2024/01/04 03:57:46;;;;;;;4.10;2.35;;;;;;;-0.13;100.00;96267.09;1224135;75;2915723;-68
2024/01/04 04:00:19;;;;;;;5.65;2.85;;;;;;;-0.06;100.00;96270.28;1223734;75;2923271;-66
2024/01/04 04:02:52;;;;;;;3.85;2.35;;;;;;;0.02;100.00;96272.72;1224846;75;2924258;-65
2024/01/04 04:05:25;;;;;;;2.95;1.95;;;;;;;-0.04;100.00;96267.91;1223581;75;2924362;-67
2024/01/04 04:07:58;;;;;;;3.15;2.15;;;;;;;-0.08;100.00;96261.91;1223717;75;2921400;-66
2024/01/04 04:10:33;;;;;;;3.45;2.25;;;;;;;-0.01;100.00;96258.22;1223966;75;2924160;-68
2024/01/04 04:13:07;;;;;;;2.55;1.85;;;;;;;-0.03;100.00;96261.31;1223472;75;2978364;-64
2024/01/04 04:15:40;;;;;;;2.40;1.70;;;;;;;-0.05;100.00;96252.97;1224713;75;2924612;-67
2024/01/04 04:18:12;;;;;;;2.55;1.80;;;;;;;-0.01;100.00;96258.22;1224376;75;2923745;-65
2024/01/04 04:20:45;;;;;;;1.70;1.40;;;;;;;-0.05;100.00;96254.88;1223692;75;2927066;-68
2024/01/04 04:23:18;;;;;;;2.15;1.65;;;;;;;-0.09;100.00;96262.34;1224382;75;2922547;-65
2024/01/04 04:25:54;;;;;;;2.65;1.90;;;;;;;-0.30;100.00;96256.53;1223348;75;2920747;-64
2024/01/04 04:28:26;;;;;;;3.60;2.65;;;;;;;-0.46;100.00;96262.06;1223771;75;2943049;-67
2024/01/04 04:30:59;;;;;;;2.80;2.15;;;;;;;-0.28;100.00;96264.91;1223977;75;2920516;-66
2024/01/04 04:33:32;;;;;;;5.95;3.00;;;;;;;-0.61;100.00;96264.50;1224403;75;2925275;-65
2024/01/04 04:36:05;;;;;;;3.75;2.90;;;;;;;-0.48;100.00;96280.56;1222955;75;2942407;-66
2024/01/04 04:38:38;;;;;;;4.05;2.60;;;;;;;-0.36;100.00;96282.47;1224412;75;2924369;-66
2024/01/04 04:41:13;;;;;;;3.65;2.70;;;;;;;-0.53;100.00;96268.47;1224428;75;2920165;-65
2024/01/04 04:43:46;;;;;;;3.45;2.70;;;;;;;-0.36;100.00;96257.50;1222763;75;2924895;-65
2024/01/04 04:46:19;;;;;;;4.85;2.15;;;;;;;-0.30;100.00;96269.22;1224124;75;2930583;-65
2024/01/04 04:48:54;;;;;;;3.40;2.60;;;;;;;-0.38;100.00;96263.34;1223405;75;2922102;-66
2024/01/04 04:51:28;;;;;;;4.35;2.50;;;;;;;-0.23;100.00;96275.09;1225891;75;2922169;-66
2024/01/04 04:54:00;;;;;;;2.85;2.00;;;;;;;-0.28;100.00;96280.28;1224511;75;2922389;-68
2024/01/04 04:56:36;;;;;;;5.45;3.15;;;;;;;-0.59;100.00;96283.63;1224882;75;2920530;-66
2024/01/04 04:59:09;;;;;;;8.15;3.40;;;;;;;-0.62;100.00;96281.81;1223732;75;2920221;-67
2024/01/04 05:01:44;;;;;;;6.00;3.95;;;;;;;-0.50;100.00;96280.28;1224005;75;2921788;-66
2024/01/04 05:04:16;;;;;;;4.60;3.55;;;;;;;-0.79;100.00;96267.03;1224139;75;2924539;-68
2024/01/04 05:06:50;;;;;;;4.30;3.15;;;;;;;-0.57;100.00;96272.44;1224038;75;2926932;-68
2024/01/04 05:09:23;;;;;;;3.75;2.75;;;;;;;-0.53;100.00;96275.75;1224159;75;2920616;-67
2024/01/04 05:11:58;;;;;;;4.25;2.80;;;;;;;-0.56;100.00;96273.94;1223993;75;2923041;-67
2024/01/04 05:14:31;;;;;;;3.50;2.25;;;;;;;-0.46;100.00;96272.81;1224821;75;2922658;-65
2024/01/04 05:17:04;;;;;;;4.00;2.70;;;;;;;-0.61;100.00;96269.13;1223564;75;2924284;-66
2024/01/04 05:19:36;;;;;;;3.45;2.40;;;;;;;-0.59;100.00;96266.75;1224069;75;2924192;-66
2024/01/04 05:22:09;;;;;;;4.05;2.95;;;;;;;-0.56;100.00;96269.31;1225128;67;2923805;-66
2024/01/04 05:24:42;;;;;;;5.50;3.90;;;;;;;-0.65;100.00;96274.59;1223899;75;2919420;-68
2024/01/04 05:27:17;;;;;;;6.45;4.00;;;;;;;-0.76;100.00;96268.84;1223797;75;2923689;-65
2024/01/04 05:29:50;;;;;;;6.90;4.80;;;;;;;-0.57;100.00;96272.44;1223942;75;2921332;-68
2024/01/04 05:32:23;;;;;;;5.40;4.00;;;;;;;-0.57;100.00;96275.88;1224138;75;2928480;-65
2024/01/04 05:34:56;;;;;;;6.90;4.45;;;;;;;-0.51;100.00;96278.75;1223895;75;2928413;-68
2024/01/04 05:37:28;;;;;;;6.40;3.90;;;;;;;-0.77;100.00;96286.13;1221893;75;3165139;-69
2024/01/04 05:40:01;;;;;;;11.80;7.55;;;;;;;-0.74;100.00;96299.47;1224461;75;2919243;-67
2024/01/04 05:42:37;;;;;;;11.90;8.00;;;;;;;-0.57;100.00;96310.09;1223589;75;2925912;-67
2024/01/04 05:45:11;;;;;;;12.05;7.45;;;;;;;-0.80;100.00;96309.25;1223481;75;2928690;-67
2024/01/04 05:47:44;;;;;;;10.85;6.40;;;;;;;-0.75;100.00;96316.00;1224026;75;2915641;-66
2024/01/04 05:50:17;;;;;;;7.45;4.75;;;;;;;-0.71;100.00;96322.78;1224012;75;2921354;-67
2024/01/04 05:52:50;;;;;;;6.75;4.65;;;;;;;-0.69;100.00;96325.03;1223745;75;2919408;-66
2024/01/04 05:55:23;;;;;;;5.70;3.70;;;;;;;-0.79;100.00;96331.53;1223664;75;2927493;-68
2024/01/04 05:57:58;;;;;;;8.30;5.10;;;;;;;-1.03;100.00;96334.53;1224130;75;2922994;-66
2024/01/04 06:00:31;;;;;;;7.50;4.70;;;;;;;-1.06;100.00;96343.44;1223429;75;2918653;-66
2024/01/04 06:03:04;;;;;;;5.95;4.10;;;;;;;-0.91;100.00;96328.41;1223914;75;2924177;-68
2024/01/04 06:05:37;;;;;;;7.55;4.35;;;;;;;-1.05;100.00;96342.28;1224642;75;2919398;-67
2024/01/04 06:08:10;;;;;;;7.60;4.55;;;;;;;-1.11;100.00;96344.75;1224934;75;2921346;-68
2024/01/04 06:10:44;;;;;;;5.40;3.85;;;;;;;-0.93;100.00;96346.13;1224211;75;2926856;-67
2024/01/04 06:13:25;;;;;;;7.45;4.60;;;;;;;-1.10;100.00;96340.13;1224861;75;2927894;-68
2024/01/04 06:15:59;;;;;;;6.43;4.60;;;;;;;-1.15;100.00;96356.78;1198327;75;4934752;-62
2024/01/04 06:18:31;;;;;;;6.45;4.20;;;;;;;-0.92;100.00;96358.38;1225208;75;2918583;-66
2024/01/04 06:21:05;;;;;;;5.40;4.15;;;;;;;-0.92;100.00;96359.13;1224118;75;2872553;-64
2024/01/04 06:23:37;;;;;;;4.95;3.60;;;;;;;-1.02;100.00;96356.78;1224227;75;2925209;-66
2024/01/04 06:26:10;;;;;;;8.45;5.40;;;;;;;-1.17;100.00;96349.16;1223971;75;2923077;-67
2024/01/04 06:28:46;;;;;;;7.75;5.10;;;;;;;-1.07;100.00;96368.81;1223399;75;2921258;-66
2024/01/04 06:31:18;;;;;;;6.70;5.00;;;;;;;-1.02;100.00;96362.16;1223855;75;2930788;-66
2024/01/04 06:33:51;;;;;;;6.20;4.50;;;;;;;-1.04;100.00;96359.13;1224587;75;2917883;-67
2024/01/04 06:36:25;;;;;;;4.55;3.55;;;;;;;-0.93;100.00;96354.94;1223967;75;2937142;-67
2024/01/04 06:38:57;;;;;;;4.60;3.50;;;;;;;-0.91;100.00;96365.28;1223836;75;2932352;-67
2024/01/04 06:41:30;;;;;;;5.95;4.15;;;;;;;-1.01;100.00;96369.78;1223850;75;2917678;-67
2024/01/04 06:45:03;;;;;;;5.60;4.15;;;;;;;-1.18;100.00;96371.06;1112643;75;21230003;-62
2024/01/04 06:47:36;;;;;;;6.60;4.65;;;;;;;-0.93;100.00;96364.94;1223343;75;2920471;-66
2024/01/04 06:50:11;;;;;;;6.15;4.15;;;;;;;-0.89;100.00;96360.19;1224100;75;2917429;-65
2024/01/04 06:52:44;;;;;;;5.35;3.65;;;;;;;-0.87;100.00;96366.66;1222168;75;2934611;-66
2024/01/04 06:55:18;;;;;;;6.20;3.60;;;;;;;-1.08;100.00;96364.63;1224010;75;2923927;-66
2024/01/04 06:57:51;;;;;;;5.85;3.70;;;;;;;-1.07;100.00;96379.56;1224425;75;2924501;-65
2024/01/04 07:00:26;;;;;;;5.15;4.00;;;;;;;-1.02;100.00;96383.63;1224268;75;2923586;-65
2024/01/04 07:02:59;;;;;;;5.50;3.50;;;;;;;-0.92;100.00;96386.00;1223343;75;2916121;-66
2024/01/04 07:05:32;;;;;;;3.75;2.80;;;;;;;-0.91;100.00;96382.13;1224795;75;2927854;-66
2024/01/04 07:08:06;;;;;;;4.85;3.30;;;;;;;-1.00;100.00;96387.41;1224297;75;2919968;-64
2024/01/04 07:10:40;;;;;;;4.85;3.20;;;;;;;-0.84;100.00;96389.22;1223758;75;2919044;-67
2024/01/04 07:13:13;;;;;;;5.90;3.65;;;;;;;-0.92;100.00;96393.31;1222710;75;2951852;-64
2024/01/04 07:15:49;;;;;;;4.35;3.40;;;;;;;-0.88;100.00;96393.94;1223279;75;2925926;-65
2024/01/04 07:18:22;;;;;;;4.00;2.90;;;;;;;-0.84;100.00;96399.97;1223565;75;2944114;-65
2024/01/04 07:20:55;;;;;;;5.60;3.60;;;;;;;-1.01;100.00;96396.66;1223827;67;2925946;-66
2024/01/04 07:23:28;;;;;;;5.10;3.50;;;;;;;-1.03;100.00;96412.44;1224472;75;2922484;-66
2024/01/04 07:26:00;;;;;;;4.80;3.30;;;;;;;-1.06;100.00;96410.59;1223838;75;2939087;-65
2024/01/04 07:28:33;;;;;;;5.20;3.80;;;;;;;-0.95;100.00;96421.78;1223620;75;2924111;-67
2024/01/04 07:31:09;;;;;;;4.70;3.60;;;;;;;-0.96;100.00;96425.66;1224446;75;2927116;-66
2024/01/04 07:33:42;;;;;;;4.95;3.40;;;;;;;-0.86;100.00;96423.84;1224911;75;2920814;-67
2024/01/04 07:36:16;;;;;;;4.00;2.85;;;;;;;-0.82;100.00;96429.09;1223681;75;2921706;-65
2024/01/04 07:38:49;;;;;;;6.00;4.20;;;;;;;-0.97;100.00;96426.06;1224109;75;2923570;-66
2024/01/04 07:41:21;;;;;;;4.90;3.50;;;;;;;-0.79;100.00;96422.88;1224412;75;2919228;-68
2024/01/04 07:43:54;;;;;;;4.25;3.25;;;;;;;-0.62;100.00;96428.88;1223912;75;2921363;-66
2024/01/04 07:46:30;;;;;;;6.60;3.90;;;;;;;-0.64;100.00;96434.69;1224437;75;2921782;-68
2024/01/04 07:49:03;;;;;;;3.80;3.35;;;;;;;0.13;100.00;96439.91;1224025;75;2930774;-64
2024/01/04 07:51:38;;;;;;;5.15;3.65;;;;;;;0.98;100.00;96432.72;1224138;75;2960848;-66
2024/01/04 07:54:11;;;;;;;6.35;4.75;;;;;;;2.02;100.00;96437.56;1224946;75;2932320;-65
2024/01/04 07:56:47;;;;;;;5.45;4.05;;;;;;;2.93;100.00;96429.81;1223893;75;2924671;-67
2024/01/04 07:59:21;;;;;;;3.35;3.05;;;;;;;3.48;100.00;96435.03;1224225;75;2912249;-66
2024/01/04 08:01:56;;;;;;;4.95;3.70;;;;;;;3.21;100.00;96435.91;1222911;75;2926176;-66
2024/01/04 08:04:29;;;;;;;4.75;3.75;;;;;;;3.12;100.00;96438.63;1223514;75;2927629;-67
2024/01/04 08:07:02;;;;;;;5.25;3.30;;;;;;;3.55;100.00;96440.13;1224213;75;2924656;-66
2024/01/04 08:09:35;;;;;;;3.35;2.95;;;;;;;3.47;100.00;96446.34;1224597;75;2928462;-67
2024/01/04 08:12:09;;;;;;;6.05;3.95;;;;;;;3.19;100.00;96441.75;1224538;75;2934164;-66
2024/01/04 08:14:42;;;;;;;5.05;3.30;;;;;;;3.24;100.00;96426.13;1224763;75;2921557;-67
2024/01/04 08:17:17;;;;;;;7.55;3.80;;;;;;;3.24;100.00;96426.88;1223858;75;2924488;-64
2024/01/04 08:19:50;;;;;;;5.95;4.50;;;;;;;3.45;100.00;96419.00;1223783;75;2921347;-66
2024/01/04 08:22:24;;;;;;;8.15;5.70;;;;;;;3.28;100.00;96418.63;1223798;75;2922107;-66
2024/01/04 08:24:56;;;;;;;6.40;4.75;;;;;;;3.46;100.00;96417.78;1224294;75;2921722;-66
2024/01/04 08:27:29;;;;;;;5.70;4.15;;;;;;;3.51;100.00;96422.56;1222655;75;2919011;-65
2024/01/04 08:30:02;;;;;;;4.30;3.65;;;;;;;3.64;100.00;96433.94;1224022;75;2917401;-65
2024/01/04 08:32:37;;;;;;;3.80;3.40;;;;;;;3.73;100.00;96436.59;1221437;75;2973929;-67
2024/01/04 08:35:11;;;;;;;5.00;3.00;;;;;;;3.92;100.00;96444.59;1223143;75;2920266;-66
2024/01/04 08:37:45;;;;;;;6.20;4.60;;;;;;;3.78;100.00;96441.38;1223396;75;2925682;-65
2024/01/04 08:40:18;;;;;;;7.25;4.90;;;;;;;3.81;100.00;96451.28;1224936;75;2923053;-66
2024/01/04 08:42:51;;;;;;;5.30;4.30;;;;;;;3.99;100.00;96449.66;1224868;75;2920537;-67
2024/01/04 08:45:25;;;;;;;6.50;4.50;;;;;;;3.90;100.00;96436.94;1223481;75;2920719;-67
2024/01/04 08:48:00;;;;;;;4.90;3.65;;;;;;;4.83;100.00;96442.38;1224944;75;2923298;-66
2024/01/04 08:50:33;;;;;;;4.35;3.70;;;;;;;5.09;100.00;96437.16;1224448;75;2919394;-66
2024/01/04 08:53:06;;;;;;;4.30;3.25;;;;;;;5.16;100.00;96438.75;1224221;75;2917439;-67
2024/01/04 08:55:39;;;;;;;5.00;3.45;;;;;;;5.15;100.00;96434.53;1224220;67;2917309;-67
2024/01/04 08:58:12;;;;;;;6.35;4.65;;;;;;;4.74;100.00;96423.50;1223638;75;2917438;-66
2024/01/04 09:00:45;;;;;;;4.60;3.75;;;;;;;5.45;100.00;96433.28;1224113;75;2935413;-68
2024/01/04 09:03:20;;;;;;;8.60;7.45;;;;;;;4.68;100.00;96428.81;1224794;75;2921093;-67
2024/01/04 09:05:53;;;;;;;6.60;5.90;;;;;;;5.73;100.00;96441.09;1224460;75;2926573;-68
2024/01/04 09:08:26;;;;;;;7.40;5.45;;;;;;;5.59;100.00;96442.63;1223833;75;2919468;-69
2024/01/04 09:10:59;;;;;;;7.40;5.55;;;;;;;6.27;96.09;96438.09;1224528;75;2933491;-67
2024/01/04 09:13:32;;;;;;;6.20;4.05;;;;;;;7.21;90.08;96445.69;1224994;75;2924082;-65
2024/01/04 09:16:05;;;;;;;5.15;3.90;;;;;;;7.75;86.09;96449.81;1224723;75;2927392;-67
2024/01/04 09:18:41;;;;;;;7.90;4.90;;;;;;;7.76;82.38;96456.72;1225180;75;2919659;-66
2024/01/04 09:21:14;;;;;;;8.35;5.90;;;;;;;7.37;82.72;96447.06;1223633;75;2923324;-65
2024/01/04 09:23:47;;;;;;;8.20;5.20;;;;;;;8.06;78.49;96451.72;1223804;75;2937077;-66
2024/01/04 09:26:20;;;;;;;6.25;4.75;;;;;;;8.11;79.95;96453.72;1224596;75;2918405;-67
2024/01/04 09:28:53;;;;;;;5.65;4.30;;;;;;;9.09;76.43;96457.75;1225346;75;2922280;-66
2024/01/04 09:31:25;;;;;;;5.70;3.65;;;;;;;10.18;69.25;96446.22;1224425;75;2920210;-65
2024/01/04 09:34:02;;;;;;;7.25;4.15;;;;;;;9.69;69.33;96452.06;1224862;75;2917733;-66
2024/01/04 09:36:34;;;;;;;5.95;4.40;;;;;;;9.40;71.08;96445.09;1224020;75;2924503;-66
2024/01/04 09:39:08;;;;;;;6.45;4.05;;;;;;;11.42;68.02;96451.00;1225361;75;2922515;-68
2024/01/04 09:41:44;;;;;;;5.90;3.85;;;;;;;12.25;64.10;96446.00;1224541;75;2920643;-66
2024/01/04 09:44:18;;;;;;;9.50;5.90;;;;;;;10.93;65.42;96445.38;1224920;75;2928686;-66
2024/01/04 09:46:52;;;;;;;7.15;5.40;;;;;;;12.00;63.12;96450.00;1224857;75;2916383;-68
2024/01/04 09:49:27;;;;;;;7.00;4.65;;;;;;;12.66;60.76;96452.50;1222620;75;2932859;-66
2024/01/04 09:52:00;;;;;;;6.45;4.85;;;;;;;12.57;60.64;96456.34;1223879;75;2925281;-66
2024/01/04 09:54:34;;;;;;;7.50;5.35;;;;;;;12.97;59.44;96462.81;1223719;75;2922408;-68
2024/01/04 09:57:10;;;;;;;6.60;4.95;;;;;;;13.38;57.33;96458.25;1223881;75;2919942;-66
2024/01/04 09:59:43;;;;;;;6.15;4.40;;;;;;;13.92;58.18;96462.56;1223327;75;2920591;-68
2024/01/04 10:02:19;;;;;;;6.85;4.30;;;;;;;14.43;55.59;96462.38;1223895;75;2931545;-67
2024/01/04 10:04:56;;;;;;;6.90;4.55;;;;;;;14.88;53.83;96469.75;1224652;75;2927854;-64
2024/01/04 10:07:35;;;;;;;6.25;4.20;;;;;;;15.18;52.14;96471.38;1224487;75;2926038;-67
2024/01/04 10:10:19;;;;;;;6.80;4.30;;;;;;;17.90;48.15;96463.34;1224376;75;2920744;-66
2024/01/04 10:12:55;;;;;;;6.60;4.30;;;;;;;17.11;48.75;96476.16;1224348;75;2920207;-69
2024/01/04 10:15:27;;;;;;;6.10;5.15;;;;;;;16.13;49.85;96476.59;1223639;75;2927075;-67
2024/01/04 10:18:00;;;;;;;5.60;3.65;;;;;;;17.55;46.77;96476.03;1222990;75;2928166;-67
2024/01/04 10:20:36;;;;;;;5.15;3.75;;;;;;;20.59;41.65;96459.09;1224019;75;2924030;-66
2024/01/04 10:23:11;;;;;;;5.25;3.30;;;;;;;22.55;39.11;96462.84;1224240;75;2890813;-67
2024/01/04 10:25:44;;;;;;;4.90;3.50;;;;;;;23.66;37.15;96467.06;1223862;75;2920924;-67
2024/01/04 10:28:23;;;;;;;5.20;3.75;;;;;;;23.71;35.82;96463.19;1223592;75;2924366;-66
2024/01/04 10:30:59;;;;;;;5.05;3.50;;;;;;;25.61;35.49;96449.47;1224695;75;2930066;-69
2024/01/04 10:33:32;;;;;;;3.75;2.75;;;;;;;24.86;33.58;96452.59;1225062;75;2918389;-67
2024/01/04 10:36:16;;;;;;;6.20;4.20;;;;;;;23.50;35.28;96447.09;1223417;75;2922435;-68
2024/01/04 10:38:49;;;;;;;4.80;3.05;;;;;;;24.16;34.59;96455.78;1224243;75;2925936;-67
2024/01/04 10:41:21;;;;;;;5.30;3.90;;;;;;;20.49;38.60;96461.00;1224714;75;2922432;-68
2024/01/04 10:44:05;;;;;;;4.30;3.55;;;;;;;19.46;39.04;96466.53;1223693;75;2920366;-69
2024/01/04 10:46:38;;;;;;;5.20;3.40;;;;;;;19.07;41.59;96470.81;1224305;75;2911243;-69
2024/01/04 10:49:18;;;;;;;7.50;5.30;;;;;;;20.21;40.99;96471.31;1224626;75;2920227;-66
2024/01/04 10:51:57;;;;;;;7.05;4.45;;;;;;;20.79;39.30;96462.75;1225239;75;2917045;-67
2024/01/04 10:54:34;;;;;;;4.30;3.40;;;;;;;21.73;38.10;96464.44;1224914;75;2925174;-69
2024/01/04 10:57:07;;;;;;;4.00;3.10;;;;;;;22.04;36.62;96472.28;1224715;75;2920579;-69
2024/01/04 10:59:43;;;;;;;5.00;3.35;;;;;;;22.36;37.88;96476.03;1223878;75;2919640;-66
2024/01/04 11:02:17;;;;;;;5.20;3.25;;;;;;;20.81;38.92;96480.31;1223649;75;2919488;-67
2024/01/04 11:04:52;;;;;;;3.60;2.65;;;;;;;23.93;35.28;96469.59;1221898;75;2922893;-67
2024/01/04 11:07:29;;;;;;;3.70;2.40;;;;;;;24.03;33.92;96465.44;1224871;75;2917295;-66
2024/01/04 11:10:03;;;;;;;4.00;2.80;;;;;;;23.70;34.30;96475.72;1224535;75;2920919;-66
2024/01/04 11:12:37;;;;;;;4.35;2.80;;;;;;;24.15;34.42;96465.50;1224851;75;2918971;-69
2024/01/04 11:15:15;;;;;;;3.55;2.50;;;;;;;25.61;32.93;96461.41;1224779;75;2918114;-69
2024/01/04 11:18:23;;;;;;;3.70;2.20;;;;;;;23.86;33.27;96457.28;1225322;75;2915912;-67
2024/01/04 11:21:12;;;;;;;4.30;1.85;;;;;;;22.97;33.62;96460.91;1225105;75;2918021;-69
2024/01/04 11:24:05;;;;;;;4.05;1.60;;;;;;;21.50;35.96;96459.19;1224018;75;2926390;-68
2024/01/04 11:26:56;;;;;;;2.95;1.80;;;;;;;19.53;38.05;96437.22;1225171;75;2916938;-67
2024/01/04 11:29:30;;;;;;;2.40;1.70;;;;;;;18.27;40.68;96453.50;1224996;75;2916998;-67
2024/01/04 11:32:04;;;;;;;3.25;1.85;;;;;;;18.93;39.82;96446.09;1224040;75;2921667;-68
2024/01/04 11:34:38;;;;;;;2.85;1.70;;;;;;;17.22;42.73;96451.66;1224063;75;2920411;-68
2024/01/04 11:37:19;;;;;;;3.60;1.90;;;;;;;18.36;41.52;96448.69;1224193;75;2919833;-65
2024/01/04 11:40:03;;;;;;;4.20;1.90;;;;;;;19.30;39.46;96434.63;1222977;75;2931056;-67
2024/01/04 11:42:38;;;;;;;3.00;1.75;;;;;;;18.75;39.46;96450.03;1224909;75;2921162;-69
2024/01/04 11:45:21;;;;;;;2.50;1.60;;;;;;;18.16;40.61;96450.38;1224869;75;2916094;-67
2024/01/04 11:47:54;;;;;;;2.30;1.85;;;;;;;19.10;39.73;96445.47;1225247;75;2914791;-66